sensor_id;sensor_type;location;lat;lon;timestamp;pressure;altitude;pressure_sealevel;temperature;humidity
71145;BME280;58812;47.698;17.726;2023-07-02T00:02:21;99342.31;;;18.79;95.48
71145;BME280;58812;47.698;17.726;2023-07-02T00:04:47;99337.78;;;18.73;94.00
71145;BME280;58812;47.698;17.726;2023-07-02T00:07:13;99340.91;;;18.77;95.19
71145;BME280;58812;47.698;17.726;2023-07-02T00:09:40;99339.25;;;18.76;94.71
71145;BME280;58812;47.698;17.726;2023-07-02T00:12:06;99340.06;;;18.76;95.14
71145;BME280;58812;47.698;17.726;2023-07-02T00:14:31;99340.75;;;18.65;94.30
71145;BME280;58812;47.698;17.726;2023-07-02T00:16:57;99338.06;;;18.65;94.37
71145;BME280;58812;47.698;17.726;2023-07-02T00:19:22;99341.22;;;18.62;95.24
71145;BME280;58812;47.698;17.726;2023-07-02T00:21:48;99340.00;;;18.58;95.33
71145;BME280;58812;47.698;17.726;2023-07-02T00:24:13;99336.50;;;18.51;94.92
71145;BME280;58812;47.698;17.726;2023-07-02T00:26:41;99343.59;;;18.52;95.50
71145;BME280;58812;47.698;17.726;2023-07-02T00:29:08;99338.00;;;18.47;95.75
71145;BME280;58812;47.698;17.726;2023-07-02T00:31:34;99342.97;;;18.50;95.19
71145;BME280;58812;47.698;17.726;2023-07-02T00:34:00;99334.06;;;18.42;95.33
71145;BME280;58812;47.698;17.726;2023-07-02T00:36:26;99334.88;;;18.43;95.09
71145;BME280;58812;47.698;17.726;2023-07-02T00:38:52;99339.94;;;18.39;95.23
71145;BME280;58812;47.698;17.726;2023-07-02T00:41:17;99338.41;;;18.43;95.17
71145;BME280;58812;47.698;17.726;2023-07-02T00:43:43;99344.06;;;18.42;94.97
71145;BME280;58812;47.698;17.726;2023-07-02T00:46:16;99345.34;;;18.39;97.47
71145;BME280;58812;47.698;17.726;2023-07-02T00:49:03;99344.91;;;18.42;98.13
71145;BME280;58812;47.698;17.726;2023-07-02T00:51:29;99347.59;;;18.42;97.46
71145;BME280;58812;47.698;17.726;2023-07-02T00:53:57;99340.94;;;18.45;99.22
71145;BME280;58812;47.698;17.726;2023-07-02T00:56:24;99344.47;;;18.46;99.79
71145;BME280;58812;47.698;17.726;2023-07-02T00:58:51;99345.28;;;18.46;100.00
71145;BME280;58812;47.698;17.726;2023-07-02T01:01:19;99341.12;;;18.43;100.00
71145;BME280;58812;47.698;17.726;2023-07-02T01:04:02;99345.72;;;18.43;100.00
71145;BME280;58812;47.698;17.726;2023-07-02T01:06:32;99356.56;;;18.43;100.00
71145;BME280;58812;47.698;17.726;2023-07-02T01:09:01;99357.84;;;18.40;100.00
71145;BME280;58812;47.698;17.726;2023-07-02T01:11:28;99355.34;;;18.39;100.00
71145;BME280;58812;47.698;17.726;2023-07-02T01:13:59;99356.59;;;18.36;100.00
71145;BME280;58812;47.698;17.726;2023-07-02T01:16:27;99352.69;;;18.32;100.00
71145;BME280;58812;47.698;17.726;2023-07-02T01:18:56;99355.84;;;18.29;100.00
71145;BME280;58812;47.698;17.726;2023-07-02T01:21:23;99350.25;;;18.24;100.00
71145;BME280;58812;47.698;17.726;2023-07-02T01:23:50;99347.16;;;18.21;100.00
71145;BME280;58812;47.698;17.726;2023-07-02T01:26:15;99347.81;;;18.16;100.00
71145;BME280;58812;47.698;17.726;2023-07-02T01:28:41;99349.03;;;18.13;100.00
71145;BME280;58812;47.698;17.726;2023-07-02T01:31:07;99350.59;;;18.03;100.00
71145;BME280;58812;47.698;17.726;2023-07-02T01:33:32;99352.06;;;17.99;100.00
71145;BME280;58812;47.698;17.726;2023-07-02T01:35:58;99347.28;;;17.94;100.00
71145;BME280;58812;47.698;17.726;2023-07-02T01:38:23;99351.28;;;17.92;100.00
71145;BME280;58812;47.698;17.726;2023-07-02T01:40:49;99349.44;;;17.85;100.00
71145;BME280;58812;47.698;17.726;2023-07-02T01:43:14;99352.34;;;17.84;100.00
71145;BME280;58812;47.698;17.726;2023-07-02T01:45:41;99348.19;;;17.81;100.00
71145;BME280;58812;47.698;17.726;2023-07-02T01:48:07;99348.62;;;17.78;100.00
71145;BME280;58812;47.698;17.726;2023-07-02T01:50:33;99343.66;;;17.75;100.00
71145;BME280;58812;47.698;17.726;2023-07-02T01:52:58;99352.19;;;17.72;100.00
71145;BME280;58812;47.698;17.726;2023-07-02T01:55:24;99348.03;;;17.63;100.00
71145;BME280;58812;47.698;17.726;2023-07-02T01:57:50;99350.56;;;17.58;100.00
71145;BME280;58812;47.698;17.726;2023-07-02T02:00:15;99351.59;;;17.57;100.00
71145;BME280;58812;47.698;17.726;2023-07-02T02:02:42;99352.25;;;17.52;100.00
71145;BME280;58812;47.698;17.726;2023-07-02T02:05:08;99356.22;;;17.50;100.00
71145;BME280;58812;47.698;17.726;2023-07-02T02:07:35;99363.69;;;17.48;100.00
71145;BME280;58812;47.698;17.726;2023-07-02T02:10:02;99357.06;;;17.44;100.00
71145;BME280;58812;47.698;17.726;2023-07-02T02:12:28;99348.31;;;17.42;100.00
71145;BME280;58812;47.698;17.726;2023-07-02T02:14:53;99347.72;;;17.40;100.00
71145;BME280;58812;47.698;17.726;2023-07-02T02:17:19;99352.06;;;17.41;100.00
71145;BME280;58812;47.698;17.726;2023-07-02T02:19:44;99347.72;;;17.40;100.00
71145;BME280;58812;47.698;17.726;2023-07-02T02:22:10;99347.53;;;17.34;100.00
71145;BME280;58812;47.698;17.726;2023-07-02T02:24:35;99354.81;;;17.34;100.00
71145;BME280;58812;47.698;17.726;2023-07-02T02:27:01;99356.25;;;17.30;100.00
71145;BME280;58812;47.698;17.726;2023-07-02T02:29:26;99357.06;;;17.37;100.00
71145;BME280;58812;47.698;17.726;2023-07-02T02:31:52;99358.53;;;17.40;100.00
71145;BME280;58812;47.698;17.726;2023-07-02T02:34:17;99362.91;;;17.41;100.00
71145;BME280;58812;47.698;17.726;2023-07-02T02:36:42;99358.72;;;17.45;100.00
71145;BME280;58812;47.698;17.726;2023-07-02T02:39:08;99372.44;;;17.43;100.00
71145;BME280;58812;47.698;17.726;2023-07-02T02:41:34;99369.13;;;17.41;100.00
71145;BME280;58812;47.698;17.726;2023-07-02T02:43:59;99370.41;;;17.39;100.00
71145;BME280;58812;47.698;17.726;2023-07-02T02:46:25;99365.59;;;17.41;100.00
71145;BME280;58812;47.698;17.726;2023-07-02T02:48:50;99370.16;;;17.47;100.00
71145;BME280;58812;47.698;17.726;2023-07-02T02:51:16;99362.25;;;17.52;100.00
71145;BME280;58812;47.698;17.726;2023-07-02T02:53:42;99362.44;;;17.57;100.00
71145;BME280;58812;47.698;17.726;2023-07-02T02:56:07;99369.91;;;17.61;100.00
71145;BME280;58812;47.698;17.726;2023-07-02T02:58:33;99378.19;;;17.67;100.00
71145;BME280;58812;47.698;17.726;2023-07-02T03:00:58;99366.78;;;17.65;100.00
71145;BME280;58812;47.698;17.726;2023-07-02T03:03:24;99370.31;;;17.72;100.00
71145;BME280;58812;47.698;17.726;2023-07-02T03:05:50;99369.06;;;17.74;100.00
71145;BME280;58812;47.698;17.726;2023-07-02T03:08:16;99374.25;;;17.76;100.00
71145;BME280;58812;47.698;17.726;2023-07-02T03:10:41;99370.28;;;17.78;100.00
71145;BME280;58812;47.698;17.726;2023-07-02T03:13:06;99372.56;;;17.81;100.00
71145;BME280;58812;47.698;17.726;2023-07-02T03:15:32;99367.75;;;17.83;100.00
71145;BME280;58812;47.698;17.726;2023-07-02T03:17:57;99377.34;;;17.86;100.00
71145;BME280;58812;47.698;17.726;2023-07-02T03:20:24;99369.59;;;17.89;100.00
71145;BME280;58812;47.698;17.726;2023-07-02T03:22:49;99366.47;;;17.93;100.00
71145;BME280;58812;47.698;17.726;2023-07-02T03:25:15;99371.88;;;17.93;100.00
71145;BME280;58812;47.698;17.726;2023-07-02T03:27:41;99373.97;;;17.97;100.00
71145;BME280;58812;47.698;17.726;2023-07-02T03:30:07;99366.44;;;17.99;100.00
71145;BME280;58812;47.698;17.726;2023-07-02T03:32:33;99376.00;;;18.02;100.00
71145;BME280;58812;47.698;17.726;2023-07-02T03:34:58;99370.56;;;18.02;100.00
71145;BME280;58812;47.698;17.726;2023-07-02T03:37:23;99379.53;;;18.09;100.00
71145;BME280;58812;47.698;17.726;2023-07-02T03:39:49;99392.84;;;18.10;100.00
71145;BME280;58812;47.698;17.726;2023-07-02T03:42:15;99395.94;;;18.14;100.00
71145;BME280;58812;47.698;17.726;2023-07-02T03:44:41;99390.50;;;18.21;100.00
71145;BME280;58812;47.698;17.726;2023-07-02T03:47:06;99381.75;;;18.19;100.00
71145;BME280;58812;47.698;17.726;2023-07-02T03:49:33;99384.66;;;18.17;100.00
71145;BME280;58812;47.698;17.726;2023-07-02T03:51:59;99383.37;;;18.20;100.00
71145;BME280;58812;47.698;17.726;2023-07-02T03:54:24;99395.41;;;18.30;100.00
71145;BME280;58812;47.698;17.726;2023-07-02T03:56:50;99385.38;;;18.37;100.00
71145;BME280;58812;47.698;17.726;2023-07-02T03:59:15;99389.75;;;18.38;100.00
71145;BME280;58812;47.698;17.726;2023-07-02T04:01:40;99390.78;;;18.37;100.00
71145;BME280;58812;47.698;17.726;2023-07-02T04:04:06;99395.78;;;18.40;100.00
71145;BME280;58812;47.698;17.726;2023-07-02T04:06:32;99395.31;;;18.43;100.00
71145;BME280;58812;47.698;17.726;2023-07-02T04:08:59;99395.38;;;18.37;100.00
71145;BME280;58812;47.698;17.726;2023-07-02T04:11:24;99399.28;;;18.48;100.00
71145;BME280;58812;47.698;17.726;2023-07-02T04:13:50;99397.16;;;18.50;98.98
71145;BME280;58812;47.698;17.726;2023-07-02T04:16:15;99409.69;;;18.51;98.61
71145;BME280;58812;47.698;17.726;2023-07-02T04:18:41;99408.00;;;18.56;98.92
71145;BME280;58812;47.698;17.726;2023-07-02T04:21:06;99413.19;;;18.58;98.56
71145;BME280;58812;47.698;17.726;2023-07-02T04:23:32;99414.84;;;18.59;98.50
71145;BME280;58812;47.698;17.726;2023-07-02T04:25:57;99417.81;;;18.51;98.37
71145;BME280;58812;47.698;17.726;2023-07-02T04:28:22;99424.03;;;18.58;97.70
71145;BME280;58812;47.698;17.726;2023-07-02T04:30:48;99421.87;;;18.66;97.74
71145;BME280;58812;47.698;17.726;2023-07-02T04:33:15;99429.31;;;18.78;97.41
71145;BME280;58812;47.698;17.726;2023-07-02T04:35:41;99422.19;;;18.83;96.59
71145;BME280;58812;47.698;17.726;2023-07-02T04:38:06;99425.31;;;18.87;96.60
71145;BME280;58812;47.698;17.726;2023-07-02T04:40:32;99429.91;;;18.86;96.76
71145;BME280;58812;47.698;17.726;2023-07-02T04:42:58;99422.97;;;18.90;96.64
71145;BME280;58812;47.698;17.726;2023-07-02T04:45:24;99433.31;;;19.00;96.57
71145;BME280;58812;47.698;17.726;2023-07-02T04:47:50;99434.91;;;19.08;95.64
71145;BME280;58812;47.698;17.726;2023-07-02T04:50:17;99437.37;;;19.59;93.34
71145;BME280;58812;47.698;17.726;2023-07-02T04:52:42;99445.16;;;20.11;89.82
71145;BME280;58812;47.698;17.726;2023-07-02T04:55:08;99443.47;;;20.58;87.29
71145;BME280;58812;47.698;17.726;2023-07-02T04:57:34;99453.84;;;20.91;84.43
71145;BME280;58812;47.698;17.726;2023-07-02T04:59:59;99436.91;;;20.77;83.23
71145;BME280;58812;47.698;17.726;2023-07-02T05:02:24;99444.16;;;20.53;84.65
71145;BME280;58812;47.698;17.726;2023-07-02T05:04:50;99450.44;;;20.54;85.29
71145;BME280;58812;47.698;17.726;2023-07-02T05:07:16;99444.84;;;20.49;85.91
71145;BME280;58812;47.698;17.726;2023-07-02T05:09:41;99450.69;;;20.34;85.24
71145;BME280;58812;47.698;17.726;2023-07-02T05:12:07;99456.38;;;20.14;84.33
71145;BME280;58812;47.698;17.726;2023-07-02T05:14:33;99451.94;;;20.01;85.08
71145;BME280;58812;47.698;17.726;2023-07-02T05:16:58;99461.88;;;20.08;85.63
71145;BME280;58812;47.698;17.726;2023-07-02T05:19:24;99457.53;;;20.07;85.69
71145;BME280;58812;47.698;17.726;2023-07-02T05:21:49;99458.19;;;20.02;83.80
71145;BME280;58812;47.698;17.726;2023-07-02T05:24:14;99462.81;;;20.01;83.73
71145;BME280;58812;47.698;17.726;2023-07-02T05:26:40;99460.41;;;19.93;83.20
71145;BME280;58812;47.698;17.726;2023-07-02T05:29:05;99463.72;;;19.95;83.03
71145;BME280;58812;47.698;17.726;2023-07-02T05:31:31;99466.59;;;19.82;82.80
71145;BME280;58812;47.698;17.726;2023-07-02T05:33:57;99465.84;;;19.75;83.84
71145;BME280;58812;47.698;17.726;2023-07-02T05:36:22;99466.75;;;19.87;83.93
71145;BME280;58812;47.698;17.726;2023-07-02T05:38:48;99467.78;;;19.86;83.24
71145;BME280;58812;47.698;17.726;2023-07-02T05:41:20;99472.06;;;20.31;82.29
71145;BME280;58812;47.698;17.726;2023-07-02T05:43:46;99470.22;;;20.73;80.56
71145;BME280;58812;47.698;17.726;2023-07-02T05:46:11;99466.09;;;21.24;77.64
71145;BME280;58812;47.698;17.726;2023-07-02T05:48:39;99477.00;;;21.47;76.81
71145;BME280;58812;47.698;17.726;2023-07-02T05:51:05;99482.66;;;21.81;75.03
71145;BME280;58812;47.698;17.726;2023-07-02T05:53:30;99484.81;;;22.43;73.25
71145;BME280;58812;47.698;17.726;2023-07-02T05:55:55;99483.97;;;22.42;71.57
71145;BME280;58812;47.698;17.726;2023-07-02T05:58:21;99486.25;;;22.62;69.75
71145;BME280;58812;47.698;17.726;2023-07-02T06:00:46;99484.47;;;22.67;70.81
71145;BME280;58812;47.698;17.726;2023-07-02T06:03:15;99488.38;;;22.43;69.75
71145;BME280;58812;47.698;17.726;2023-07-02T06:05:46;99495.16;;;22.86;69.59
71145;BME280;58812;47.698;17.726;2023-07-02T06:08:12;99493.66;;;23.07;68.82
71145;BME280;58812;47.698;17.726;2023-07-02T06:10:37;99488.19;;;23.07;68.52
71145;BME280;58812;47.698;17.726;2023-07-02T06:13:03;99496.31;;;23.18;67.24
71145;BME280;58812;47.698;17.726;2023-07-02T06:15:28;99492.22;;;23.71;64.87
71145;BME280;58812;47.698;17.726;2023-07-02T06:17:54;99498.13;;;23.63;63.86
71145;BME280;58812;47.698;17.726;2023-07-02T06:20:19;99491.56;;;23.64;64.36
71145;BME280;58812;47.698;17.726;2023-07-02T06:22:45;99490.66;;;23.76;64.12
71145;BME280;58812;47.698;17.726;2023-07-02T06:25:10;99492.72;;;23.52;64.16
71145;BME280;58812;47.698;17.726;2023-07-02T06:27:35;99502.34;;;24.32;63.52
71145;BME280;58812;47.698;17.726;2023-07-02T06:30:01;99506.78;;;24.60;60.53
71145;BME280;58812;47.698;17.726;2023-07-02T06:32:26;99506.25;;;24.85;59.26
71145;BME280;58812;47.698;17.726;2023-07-02T06:34:52;99507.31;;;25.43;58.90
71145;BME280;58812;47.698;17.726;2023-07-02T06:37:17;99510.09;;;25.48;55.56
71145;BME280;58812;47.698;17.726;2023-07-02T06:39:43;99510.66;;;25.50;57.75
71145;BME280;58812;47.698;17.726;2023-07-02T06:42:08;99517.19;;;24.85;56.68
71145;BME280;58812;47.698;17.726;2023-07-02T06:44:33;99505.41;;;25.11;57.73
71145;BME280;58812;47.698;17.726;2023-07-02T06:46:59;99514.94;;;24.33;57.58
71145;BME280;58812;47.698;17.726;2023-07-02T06:49:24;99515.59;;;24.40;58.74
71145;BME280;58812;47.698;17.726;2023-07-02T06:51:50;99508.78;;;23.65;59.72
71145;BME280;58812;47.698;17.726;2023-07-02T06:54:15;99512.78;;;23.74;60.55
71145;BME280;58812;47.698;17.726;2023-07-02T06:56:40;99516.03;;;23.93;60.43
71145;BME280;58812;47.698;17.726;2023-07-02T06:59:06;99520.84;;;24.03;58.53
71145;BME280;58812;47.698;17.726;2023-07-02T07:01:31;99519.56;;;24.10;57.12
71145;BME280;58812;47.698;17.726;2023-07-02T07:03:57;99526.34;;;24.46;55.92
71145;BME280;58812;47.698;17.726;2023-07-02T07:06:22;99527.44;;;25.21;55.40
71145;BME280;58812;47.698;17.726;2023-07-02T07:08:47;99528.13;;;25.39;54.27
71145;BME280;58812;47.698;17.726;2023-07-02T07:11:13;99527.25;;;25.70;53.51
71145;BME280;58812;47.698;17.726;2023-07-02T07:13:38;99534.25;;;25.88;53.11
71145;BME280;58812;47.698;17.726;2023-07-02T07:16:04;99531.03;;;25.64;53.40
71145;BME280;58812;47.698;17.726;2023-07-02T07:18:29;99538.03;;;25.45;53.90
71145;BME280;58812;47.698;17.726;2023-07-02T07:20:55;99533.94;;;25.84;53.17
71145;BME280;58812;47.698;17.726;2023-07-02T07:23:21;99531.84;;;26.02;52.09
71145;BME280;58812;47.698;17.726;2023-07-02T07:25:46;99540.19;;;26.17;53.36
71145;BME280;58812;47.698;17.726;2023-07-02T07:28:11;99531.03;;;26.01;53.50
71145;BME280;58812;47.698;17.726;2023-07-02T07:30:41;99533.50;;;25.66;52.64
71145;BME280;58812;47.698;17.726;2023-07-02T07:33:06;99542.56;;;25.98;52.39
71145;BME280;58812;47.698;17.726;2023-07-02T07:35:32;99542.44;;;26.30;51.43
71145;BME280;58812;47.698;17.726;2023-07-02T07:37:57;99540.19;;;26.17;51.73
71145;BME280;58812;47.698;17.726;2023-07-02T07:40:23;99548.88;;;26.61;51.11
71145;BME280;58812;47.698;17.726;2023-07-02T07:42:48;99558.13;;;27.13;50.87
71145;BME280;58812;47.698;17.726;2023-07-02T07:45:13;99553.06;;;26.69;50.31
71145;BME280;58812;47.698;17.726;2023-07-02T07:47:39;99559.16;;;26.86;50.53
71145;BME280;58812;47.698;17.726;2023-07-02T07:50:05;99559.22;;;27.17;49.35
71145;BME280;58812;47.698;17.726;2023-07-02T07:52:36;99564.78;;;26.49;50.57
71145;BME280;58812;47.698;17.726;2023-07-02T07:55:02;99566.37;;;25.93;52.69
71145;BME280;58812;47.698;17.726;2023-07-02T07:57:27;99562.56;;;25.02;54.38
71145;BME280;58812;47.698;17.726;2023-07-02T07:59:53;99555.47;;;25.34;53.78
71145;BME280;58812;47.698;17.726;2023-07-02T08:02:18;99556.00;;;26.47;51.69
71145;BME280;58812;47.698;17.726;2023-07-02T08:04:44;99561.78;;;25.71;52.78
71145;BME280;58812;47.698;17.726;2023-07-02T08:07:09;99575.38;;;25.24;53.85
71145;BME280;58812;47.698;17.726;2023-07-02T08:09:34;99571.28;;;25.58;53.86
71145;BME280;58812;47.698;17.726;2023-07-02T08:12:00;99567.69;;;26.27;53.39
71145;BME280;58812;47.698;17.726;2023-07-02T08:14:25;99577.94;;;26.47;52.72
71145;BME280;58812;47.698;17.726;2023-07-02T08:16:51;99572.22;;;26.54;51.67
71145;BME280;58812;47.698;17.726;2023-07-02T08:19:16;99588.81;;;26.89;51.27
71145;BME280;58812;47.698;17.726;2023-07-02T08:21:42;99588.28;;;26.93;50.92
71145;BME280;58812;47.698;17.726;2023-07-02T08:24:07;99589.25;;;26.61;50.78
71145;BME280;58812;47.698;17.726;2023-07-02T08:26:33;99586.06;;;26.89;49.23
71145;BME280;58812;47.698;17.726;2023-07-02T08:28:58;99583.44;;;27.40;48.97
71145;BME280;58812;47.698;17.726;2023-07-02T08:31:24;99589.50;;;27.53;49.07
71145;BME280;58812;47.698;17.726;2023-07-02T08:33:49;99604.03;;;27.28;50.09
71145;BME280;58812;47.698;17.726;2023-07-02T08:36:15;99599.09;;;26.47;52.40
71145;BME280;58812;47.698;17.726;2023-07-02T08:38:40;99600.88;;;26.31;53.01
71145;BME280;58812;47.698;17.726;2023-07-02T08:41:08;99590.66;;;25.74;51.54
71145;BME280;58812;47.698;17.726;2023-07-02T08:43:35;99600.56;;;25.80;51.72
71145;BME280;58812;47.698;17.726;2023-07-02T08:46:01;99603.72;;;25.99;52.21
71145;BME280;58812;47.698;17.726;2023-07-02T08:48:28;99600.62;;;25.58;52.45
71145;BME280;58812;47.698;17.726;2023-07-02T08:50:55;99596.37;;;26.52;50.28
71145;BME280;58812;47.698;17.726;2023-07-02T08:53:21;99599.97;;;26.57;50.91
71145;BME280;58812;47.698;17.726;2023-07-02T08:55:55;99610.31;;;26.03;52.00
71145;BME280;58812;47.698;17.726;2023-07-02T08:58:21;99595.97;;;25.91;53.78
71145;BME280;58812;47.698;17.726;2023-07-02T09:03:34;99605.47;;;27.81;49.74
71145;BME280;58812;47.698;17.726;2023-07-02T09:06:06;99609.75;;;27.06;51.48
71145;BME280;58812;47.698;17.726;2023-07-02T09:08:31;99607.41;;;26.72;51.74
71145;BME280;58812;47.698;17.726;2023-07-02T09:11:15;99599.41;;;26.13;52.64
71145;BME280;58812;47.698;17.726;2023-07-02T09:13:52;99600.06;;;25.56;53.36
71145;BME280;58812;47.698;17.726;2023-07-02T09:16:31;99596.84;;;25.32;53.45
71145;BME280;58812;47.698;17.726;2023-07-02T09:19:02;99604.22;;;25.96;52.57
71145;BME280;58812;47.698;17.726;2023-07-02T09:21:46;99612.34;;;26.65;50.68
71145;BME280;58812;47.698;17.726;2023-07-02T09:24:20;99598.53;;;26.50;50.17
71145;BME280;58812;47.698;17.726;2023-07-02T09:26:50;99610.94;;;26.10;51.40
71145;BME280;58812;47.698;17.726;2023-07-02T09:29:21;99613.69;;;26.15;51.07
71145;BME280;58812;47.698;17.726;2023-07-02T09:31:48;99616.00;;;26.91;50.29
71145;BME280;58812;47.698;17.726;2023-07-02T09:34:14;99608.94;;;26.43;51.17
71145;BME280;58812;47.698;17.726;2023-07-02T09:36:40;99612.78;;;26.42;50.04
71145;BME280;58812;47.698;17.726;2023-07-02T09:39:17;99604.87;;;27.38;48.30
71145;BME280;58812;47.698;17.726;2023-07-02T09:41:44;99610.38;;;27.28;49.10
71145;BME280;58812;47.698;17.726;2023-07-02T09:44:10;99608.12;;;27.20;47.96
71145;BME280;58812;47.698;17.726;2023-07-02T09:46:37;99610.41;;;27.64;46.36
71145;BME280;58812;47.698;17.726;2023-07-02T09:49:06;99598.00;;;27.61;46.60
71145;BME280;58812;47.698;17.726;2023-07-02T09:51:36;99608.19;;;28.12;45.57
71145;BME280;58812;47.698;17.726;2023-07-02T09:54:02;99604.56;;;29.46;44.16
71145;BME280;58812;47.698;17.726;2023-07-02T09:56:27;99592.94;;;28.55;44.81
71145;BME280;58812;47.698;17.726;2023-07-02T09:58:53;99600.03;;;29.26;43.28
71145;BME280;58812;47.698;17.726;2023-07-02T10:01:18;99597.78;;;29.72;42.95
71145;BME280;58812;47.698;17.726;2023-07-02T10:03:44;99583.97;;;29.33;44.90
71145;BME280;58812;47.698;17.726;2023-07-02T10:06:09;99589.41;;;29.48;43.47
71145;BME280;58812;47.698;17.726;2023-07-02T10:08:35;99595.03;;;30.01;42.52
71145;BME280;58812;47.698;17.726;2023-07-02T10:11:13;99601.53;;;29.47;43.26
71145;BME280;58812;47.698;17.726;2023-07-02T10:13:39;99612.44;;;29.68;42.56
71145;BME280;58812;47.698;17.726;2023-07-02T10:16:06;99606.03;;;30.06;41.55
71145;BME280;58812;47.698;17.726;2023-07-02T10:18:32;99602.75;;;29.99;40.47
71145;BME280;58812;47.698;17.726;2023-07-02T10:20:58;99603.97;;;29.88;41.93
71145;BME280;58812;47.698;17.726;2023-07-02T10:23:34;99607.09;;;29.42;42.24
71145;BME280;58812;47.698;17.726;2023-07-02T10:26:18;99607.44;;;29.31;42.06
71145;BME280;58812;47.698;17.726;2023-07-02T10:29:10;99602.69;;;29.41;42.20
71145;BME280;58812;47.698;17.726;2023-07-02T10:31:50;99607.31;;;29.46;41.38
71145;BME280;58812;47.698;17.726;2023-07-02T10:34:16;99604.75;;;29.94;40.33
71145;BME280;58812;47.698;17.726;2023-07-02T10:36:56;99603.00;;;30.03;38.78
71145;BME280;58812;47.698;17.726;2023-07-02T10:39:22;99605.25;;;30.54;40.18
71145;BME280;58812;47.698;17.726;2023-07-02T10:41:47;99605.97;;;30.12;38.60
71145;BME280;58812;47.698;17.726;2023-07-02T10:44:14;99595.47;;;30.62;38.82
71145;BME280;58812;47.698;17.726;2023-07-02T10:46:45;99596.97;;;29.72;39.77
71145;BME280;58812;47.698;17.726;2023-07-02T10:49:10;99600.72;;;29.81;38.35
71145;BME280;58812;47.698;17.726;2023-07-02T10:51:37;99590.84;;;28.96;40.45
71145;BME280;58812;47.698;17.726;2023-07-02T10:54:03;99591.44;;;29.72;38.62
71145;BME280;58812;47.698;17.726;2023-07-02T10:56:31;99591.84;;;29.55;39.11
71145;BME280;58812;47.698;17.726;2023-07-02T10:58:57;99596.22;;;29.17;40.79
71145;BME280;58812;47.698;17.726;2023-07-02T11:01:27;99593.34;;;30.29;40.04
71145;BME280;58812;47.698;17.726;2023-07-02T11:03:57;99587.19;;;30.14;40.51
71145;BME280;58812;47.698;17.726;2023-07-02T11:06:24;99590.13;;;28.70;42.97
71145;BME280;58812;47.698;17.726;2023-07-02T11:08:49;99587.56;;;30.31;40.56
71145;BME280;58812;47.698;17.726;2023-07-02T11:11:15;99586.91;;;29.08;42.35
71145;BME280;58812;47.698;17.726;2023-07-02T11:13:47;99576.78;;;29.37;42.41
71145;BME280;58812;47.698;17.726;2023-07-02T11:16:27;99580.72;;;28.77;43.57
71145;BME280;58812;47.698;17.726;2023-07-02T11:19:09;99576.06;;;28.72;42.66
71145;BME280;58812;47.698;17.726;2023-07-02T11:21:36;99582.37;;;28.78;43.23
71145;BME280;58812;47.698;17.726;2023-07-02T11:24:03;99582.72;;;29.60;42.13
71145;BME280;58812;47.698;17.726;2023-07-02T11:26:38;99583.69;;;29.74;42.05
71145;BME280;58812;47.698;17.726;2023-07-02T11:29:10;99579.03;;;31.13;38.71
71145;BME280;58812;47.698;17.726;2023-07-02T11:31:35;99571.97;;;30.40;39.75
71145;BME280;58812;47.698;17.726;2023-07-02T11:34:01;99573.09;;;31.25;38.83
71145;BME280;58812;47.698;17.726;2023-07-02T11:36:26;99570.94;;;30.36;40.37
71145;BME280;58812;47.698;17.726;2023-07-02T11:38:55;99557.59;;;29.61;41.74
71145;BME280;58812;47.698;17.726;2023-07-02T11:41:21;99568.69;;;30.62;39.50
71145;BME280;58812;47.698;17.726;2023-07-02T11:43:47;99554.94;;;29.80;40.53
71145;BME280;58812;47.698;17.726;2023-07-02T11:46:13;99566.72;;;31.05;39.58
71145;BME280;58812;47.698;17.726;2023-07-02T11:48:38;99559.84;;;29.59;41.47
71145;BME280;58812;47.698;17.726;2023-07-02T11:51:04;99557.53;;;30.24;40.94
71145;BME280;58812;47.698;17.726;2023-07-02T11:53:29;99549.22;;;31.10;39.39
71145;BME280;58812;47.698;17.726;2023-07-02T11:55:55;99548.41;;;30.24;38.29
71145;BME280;58812;47.698;17.726;2023-07-02T11:58:20;99557.66;;;30.81;37.67
71145;BME280;58812;47.698;17.726;2023-07-02T12:00:46;99548.16;;;29.96;39.29
71145;BME280;58812;47.698;17.726;2023-07-02T12:03:11;99551.00;;;30.39;39.09
71145;BME280;58812;47.698;17.726;2023-07-02T12:05:37;99541.56;;;31.26;37.11
71145;BME280;58812;47.698;17.726;2023-07-02T12:08:03;99547.38;;;31.05;37.81
71145;BME280;58812;47.698;17.726;2023-07-02T12:10:28;99554.19;;;29.98;38.04
71145;BME280;58812;47.698;17.726;2023-07-02T12:12:54;99550.81;;;29.09;39.86
71145;BME280;58812;47.698;17.726;2023-07-02T12:15:19;99542.91;;;28.92;40.39
71145;BME280;58812;47.698;17.726;2023-07-02T12:17:45;99540.72;;;28.94;40.01
71145;BME280;58812;47.698;17.726;2023-07-02T12:20:11;99545.19;;;30.17;38.70
71145;BME280;58812;47.698;17.726;2023-07-02T12:22:36;99542.94;;;29.95;39.14
71145;BME280;58812;47.698;17.726;2023-07-02T12:25:02;99538.63;;;30.13;38.62
71145;BME280;58812;47.698;17.726;2023-07-02T12:27:27;99537.34;;;30.00;38.04
71145;BME280;58812;47.698;17.726;2023-07-02T12:29:53;99536.47;;;30.52;37.40
71145;BME280;58812;47.698;17.726;2023-07-02T12:32:18;99534.25;;;30.54;36.88
71145;BME280;58812;47.698;17.726;2023-07-02T12:34:44;99530.19;;;30.47;37.99
71145;BME280;58812;47.698;17.726;2023-07-02T12:37:09;99526.50;;;30.94;37.47
71145;BME280;58812;47.698;17.726;2023-07-02T12:39:34;99533.31;;;30.83;36.85
71145;BME280;58812;47.698;17.726;2023-07-02T12:42:00;99530.19;;;30.47;36.30
71145;BME280;58812;47.698;17.726;2023-07-02T12:44:25;99530.13;;;31.14;35.76
71145;BME280;58812;47.698;17.726;2023-07-02T12:46:51;99527.13;;;31.10;35.20
71145;BME280;58812;47.698;17.726;2023-07-02T12:49:16;99536.06;;;31.40;34.97